sensor_id;sensor_type;location;lat;lon;timestamp;pressure;altitude;pressure_sealevel;temperature
68911;BMP180;55953;51.650;-0.522;2022-07-29T00:01:18;100971.80;;;17.40
68911;BMP180;55953;51.650;-0.522;2022-07-29T00:03:47;100975.00;;;17.32
68911;BMP180;55953;51.650;-0.522;2022-07-29T00:06:15;100976.40;;;17.30
68911;BMP180;55953;51.650;-0.522;2022-07-29T00:08:43;100976.40;;;17.30
68911;BMP180;55953;51.650;-0.522;2022-07-29T00:11:11;100969.60;;;17.30
68911;BMP180;55953;51.650;-0.522;2022-07-29T00:13:39;100967.00;;;17.30
68911;BMP180;55953;51.650;-0.522;2022-07-29T00:16:07;100969.20;;;17.20
68911;BMP180;55953;51.650;-0.522;2022-07-29T00:18:35;100964.20;;;17.20
68911;BMP180;55953;51.650;-0.522;2022-07-29T00:21:03;100958.00;;;17.20
68911;BMP180;55953;51.650;-0.522;2022-07-29T00:23:30;100954.00;;;17.20
68911;BMP180;55953;51.650;-0.522;2022-07-29T00:26:03;100950.60;;;17.20
68911;BMP180;55953;51.650;-0.522;2022-07-29T00:28:31;100947.60;;;17.20
68911;BMP180;55953;51.650;-0.522;2022-07-29T00:30:59;100947.80;;;17.10
68911;BMP180;55953;51.650;-0.522;2022-07-29T00:33:27;100946.80;;;17.10
68911;BMP180;55953;51.650;-0.522;2022-07-29T00:35:55;100940.40;;;17.10
68911;BMP180;55953;51.650;-0.522;2022-07-29T00:38:23;100944.80;;;17.10
68911;BMP180;55953;51.650;-0.522;2022-07-29T00:40:51;100939.40;;;17.10
68911;BMP180;55953;51.650;-0.522;2022-07-29T00:43:19;100938.00;;;17.10
68911;BMP180;55953;51.650;-0.522;2022-07-29T00:45:47;100933.80;;;17.10
68911;BMP180;55953;51.650;-0.522;2022-07-29T00:48:15;100934.40;;;17.10
68911;BMP180;55953;51.650;-0.522;2022-07-29T00:50:43;100928.20;;;17.10
68911;BMP180;55953;51.650;-0.522;2022-07-29T00:53:11;100923.80;;;17.10
68911;BMP180;55953;51.650;-0.522;2022-07-29T00:55:39;100922.40;;;17.10
68911;BMP180;55953;51.650;-0.522;2022-07-29T00:58:08;100927.80;;;17.10
68911;BMP180;55953;51.650;-0.522;2022-07-29T01:00:36;100924.80;;;17.10
68911;BMP180;55953;51.650;-0.522;2022-07-29T01:03:04;100932.00;;;17.10
68911;BMP180;55953;51.650;-0.522;2022-07-29T01:05:34;100934.40;;;17.10
68911;BMP180;55953;51.650;-0.522;2022-07-29T01:08:18;100934.40;;;17.10
68911;BMP180;55953;51.650;-0.522;2022-07-29T01:10:48;100932.20;;;17.10
68911;BMP180;55953;51.650;-0.522;2022-07-29T01:13:17;100935.20;;;17.10
68911;BMP180;55953;51.650;-0.522;2022-07-29T01:16:11;100933.40;;;17.10
68911;BMP180;55953;51.650;-0.522;2022-07-29T01:18:46;100934.60;;;17.00
68911;BMP180;55953;51.650;-0.522;2022-07-29T01:24:55;100935.40;;;16.90
68911;BMP180;55953;51.650;-0.522;2022-07-29T01:30:51;100935.60;;;16.80
68911;BMP180;55953;51.650;-0.522;2022-07-29T01:33:24;100933.40;;;16.70
68911;BMP180;55953;51.650;-0.522;2022-07-29T01:36:19;100935.20;;;16.60
68911;BMP180;55953;51.650;-0.522;2022-07-29T01:39:19;100934.60;;;16.50
68911;BMP180;55953;51.650;-0.522;2022-07-29T01:42:02;100939.00;;;16.50
68911;BMP180;55953;51.650;-0.522;2022-07-29T01:44:39;100937.80;;;16.42
68911;BMP180;55953;51.650;-0.522;2022-07-29T01:47:15;100932.40;;;16.44
68911;BMP180;55953;51.650;-0.522;2022-07-29T01:49:50;100936.80;;;16.40
68911;BMP180;55953;51.650;-0.522;2022-07-29T01:52:26;100934.80;;;16.40
68911;BMP180;55953;51.650;-0.522;2022-07-29T01:54:58;100929.00;;;16.30
68911;BMP180;55953;51.650;-0.522;2022-07-29T01:57:31;100936.80;;;16.30
68911;BMP180;55953;51.650;-0.522;2022-07-29T02:00:03;100937.20;;;16.30
68911;BMP180;55953;51.650;-0.522;2022-07-29T02:02:42;100938.80;;;16.30
68911;BMP180;55953;51.650;-0.522;2022-07-29T02:05:15;100938.40;;;16.28
68911;BMP180;55953;51.650;-0.522;2022-07-29T02:07:46;100941.60;;;16.20
68911;BMP180;55953;51.650;-0.522;2022-07-29T02:10:19;100940.00;;;16.20
68911;BMP180;55953;51.650;-0.522;2022-07-29T02:12:54;100939.60;;;16.20
68911;BMP180;55953;51.650;-0.522;2022-07-29T02:15:27;100933.20;;;16.20
68911;BMP180;55953;51.650;-0.522;2022-07-29T02:18:14;100934.40;;;16.20
68911;BMP180;55953;51.650;-0.522;2022-07-29T02:20:50;100928.20;;;16.12
68911;BMP180;55953;51.650;-0.522;2022-07-29T02:23:22;100928.00;;;16.10
68911;BMP180;55953;51.650;-0.522;2022-07-29T02:25:56;100931.80;;;16.10
68911;BMP180;55953;51.650;-0.522;2022-07-29T02:28:27;100930.00;;;16.00
68911;BMP180;55953;51.650;-0.522;2022-07-29T02:31:00;100932.80;;;15.90
68911;BMP180;55953;51.650;-0.522;2022-07-29T02:33:31;100938.40;;;16.00
68911;BMP180;55953;51.650;-0.522;2022-07-29T02:36:00;100940.60;;;15.90
68911;BMP180;55953;51.650;-0.522;2022-07-29T02:38:29;100944.20;;;15.90
68911;BMP180;55953;51.650;-0.522;2022-07-29T02:41:55;100944.00;;;15.90
68911;BMP180;55953;51.650;-0.522;2022-07-29T02:44:25;100944.00;;;15.86
68911;BMP180;55953;51.650;-0.522;2022-07-29T02:47:20;100938.80;;;15.80
68911;BMP180;55953;51.650;-0.522;2022-07-29T02:49:59;100946.60;;;15.70
68911;BMP180;55953;51.650;-0.522;2022-07-29T02:55:37;100938.40;;;15.68
68911;BMP180;55953;51.650;-0.522;2022-07-29T02:58:25;100944.60;;;15.60
68911;BMP180;55953;51.650;-0.522;2022-07-29T03:01:03;100943.80;;;15.60
68911;BMP180;55953;51.650;-0.522;2022-07-29T03:03:37;100942.00;;;15.60
68911;BMP180;55953;51.650;-0.522;2022-07-29T03:06:06;100944.20;;;15.58
68911;BMP180;55953;51.650;-0.522;2022-07-29T03:08:36;100945.40;;;15.60
68911;BMP180;55953;51.650;-0.522;2022-07-29T03:11:04;100947.00;;;15.50
68911;BMP180;55953;51.650;-0.522;2022-07-29T03:13:33;100947.00;;;15.50
68911;BMP180;55953;51.650;-0.522;2022-07-29T03:16:02;100946.80;;;15.50
68911;BMP180;55953;51.650;-0.522;2022-07-29T03:18:31;100945.20;;;15.50
68911;BMP180;55953;51.650;-0.522;2022-07-29T03:20:59;100947.80;;;15.50
68911;BMP180;55953;51.650;-0.522;2022-07-29T03:23:27;100943.20;;;15.40
68911;BMP180;55953;51.650;-0.522;2022-07-29T03:26:03;100940.00;;;15.20
68911;BMP180;55953;51.650;-0.522;2022-07-29T03:28:31;100942.40;;;15.20
68911;BMP180;55953;51.650;-0.522;2022-07-29T03:31:00;100936.60;;;15.20
68911;BMP180;55953;51.650;-0.522;2022-07-29T03:33:28;100937.00;;;15.10
68911;BMP180;55953;51.650;-0.522;2022-07-29T03:35:57;100935.60;;;15.10
68911;BMP180;55953;51.650;-0.522;2022-07-29T03:38:29;100929.40;;;15.10
68911;BMP180;55953;51.650;-0.522;2022-07-29T03:41:04;100932.40;;;15.02
68911;BMP180;55953;51.650;-0.522;2022-07-29T03:43:40;100928.80;;;14.90
68911;BMP180;55953;51.650;-0.522;2022-07-29T03:46:17;100929.80;;;14.90
68911;BMP180;55953;51.650;-0.522;2022-07-29T03:48:50;100936.20;;;14.92
68911;BMP180;55953;51.650;-0.522;2022-07-29T03:51:20;100933.00;;;14.90
68911;BMP180;55953;51.650;-0.522;2022-07-29T03:54:02;100932.60;;;14.90
68911;BMP180;55953;51.650;-0.522;2022-07-29T03:56:43;100933.60;;;14.80
68911;BMP180;55953;51.650;-0.522;2022-07-29T03:59:17;100939.20;;;14.80
68911;BMP180;55953;51.650;-0.522;2022-07-29T04:01:47;100941.80;;;14.80
68911;BMP180;55953;51.650;-0.522;2022-07-29T04:04:16;100947.20;;;14.78
68911;BMP180;55953;51.650;-0.522;2022-07-29T04:06:46;100947.20;;;14.70
68911;BMP180;55953;51.650;-0.522;2022-07-29T04:09:14;100950.20;;;14.78
68911;BMP180;55953;51.650;-0.522;2022-07-29T04:11:42;100947.60;;;14.72
68911;BMP180;55953;51.650;-0.522;2022-07-29T04:14:32;100955.20;;;14.70
68911;BMP180;55953;51.650;-0.522;2022-07-29T04:17:02;100956.80;;;14.70
68911;BMP180;55953;51.650;-0.522;2022-07-29T04:19:31;100956.00;;;14.80
68911;BMP180;55953;51.650;-0.522;2022-07-29T04:22:00;100951.00;;;14.82
68911;BMP180;55953;51.650;-0.522;2022-07-29T04:24:28;100948.60;;;14.90
68911;BMP180;55953;51.650;-0.522;2022-07-29T04:26:56;100949.60;;;14.90
68911;BMP180;55953;51.650;-0.522;2022-07-29T04:29:24;100942.80;;;14.90
68911;BMP180;55953;51.650;-0.522;2022-07-29T04:31:52;100955.20;;;15.10
68911;BMP180;55953;51.650;-0.522;2022-07-29T04:34:19;100957.80;;;15.18
68911;BMP180;55953;51.650;-0.522;2022-07-29T04:36:47;100959.00;;;15.20
68911;BMP180;55953;51.650;-0.522;2022-07-29T04:39:15;100962.20;;;15.10
68911;BMP180;55953;51.650;-0.522;2022-07-29T04:41:50;100953.40;;;15.00
68911;BMP180;55953;51.650;-0.522;2022-07-29T04:44:21;100950.60;;;14.98
68911;BMP180;55953;51.650;-0.522;2022-07-29T04:46:56;100948.20;;;15.00
68911;BMP180;55953;51.650;-0.522;2022-07-29T04:49:25;100949.40;;;15.02
68911;BMP180;55953;51.650;-0.522;2022-07-29T04:51:53;100949.00;;;15.00
68911;BMP180;55953;51.650;-0.522;2022-07-29T04:54:21;100949.20;;;15.00
68911;BMP180;55953;51.650;-0.522;2022-07-29T04:56:48;100948.40;;;15.00
68911;BMP180;55953;51.650;-0.522;2022-07-29T04:59:16;100958.20;;;15.04
68911;BMP180;55953;51.650;-0.522;2022-07-29T05:01:44;100954.00;;;15.10
68911;BMP180;55953;51.650;-0.522;2022-07-29T05:04:12;100952.80;;;15.20
68911;BMP180;55953;51.650;-0.522;2022-07-29T05:06:40;100955.80;;;15.38
68911;BMP180;55953;51.650;-0.522;2022-07-29T05:09:08;100953.00;;;15.40
68911;BMP180;55953;51.650;-0.522;2022-07-29T05:11:36;100949.80;;;15.42
68911;BMP180;55953;51.650;-0.522;2022-07-29T05:14:03;100953.00;;;15.50
68911;BMP180;55953;51.650;-0.522;2022-07-29T05:16:31;100953.20;;;15.56
68911;BMP180;55953;51.650;-0.522;2022-07-29T05:18:59;100948.40;;;15.70
68911;BMP180;55953;51.650;-0.522;2022-07-29T05:21:26;100953.20;;;15.80
68911;BMP180;55953;51.650;-0.522;2022-07-29T05:23:54;100958.60;;;15.80
68911;BMP180;55953;51.650;-0.522;2022-07-29T05:26:22;100955.60;;;15.82
68911;BMP180;55953;51.650;-0.522;2022-07-29T05:28:50;100956.60;;;15.90
68911;BMP180;55953;51.650;-0.522;2022-07-29T05:31:18;100957.40;;;16.00
68911;BMP180;55953;51.650;-0.522;2022-07-29T05:33:46;100954.60;;;16.00
68911;BMP180;55953;51.650;-0.522;2022-07-29T05:36:13;100949.40;;;16.10
68911;BMP180;55953;51.650;-0.522;2022-07-29T05:38:41;100960.00;;;16.20
68911;BMP180;55953;51.650;-0.522;2022-07-29T05:41:09;100963.00;;;16.30
68911;BMP180;55953;51.650;-0.522;2022-07-29T05:43:37;100962.60;;;16.40
68911;BMP180;55953;51.650;-0.522;2022-07-29T05:46:05;100965.60;;;16.44
68911;BMP180;55953;51.650;-0.522;2022-07-29T05:48:32;100963.00;;;16.50
68911;BMP180;55953;51.650;-0.522;2022-07-29T05:51:00;100969.80;;;16.60
68911;BMP180;55953;51.650;-0.522;2022-07-29T05:53:28;100965.40;;;16.70
68911;BMP180;55953;51.650;-0.522;2022-07-29T05:55:56;100965.20;;;16.70
68911;BMP180;55953;51.650;-0.522;2022-07-29T05:58:24;100970.40;;;16.70
68911;BMP180;55953;51.650;-0.522;2022-07-29T06:00:52;100970.20;;;16.70
68911;BMP180;55953;51.650;-0.522;2022-07-29T06:03:20;100970.20;;;16.80
68911;BMP180;55953;51.650;-0.522;2022-07-29T06:05:48;100971.80;;;16.90
68911;BMP180;55953;51.650;-0.522;2022-07-29T06:08:15;100971.20;;;17.00
68911;BMP180;55953;51.650;-0.522;2022-07-29T06:10:43;100967.00;;;17.20
68911;BMP180;55953;51.650;-0.522;2022-07-29T06:13:12;100968.00;;;17.30
68911;BMP180;55953;51.650;-0.522;2022-07-29T06:15:40;100970.00;;;17.42
68911;BMP180;55953;51.650;-0.522;2022-07-29T06:18:08;100961.00;;;17.68
68911;BMP180;55953;51.650;-0.522;2022-07-29T06:20:37;100965.40;;;17.90
68911;BMP180;55953;51.650;-0.522;2022-07-29T06:23:05;100966.20;;;18.00
68911;BMP180;55953;51.650;-0.522;2022-07-29T06:25:33;100970.20;;;18.22
68911;BMP180;55953;51.650;-0.522;2022-07-29T06:28:04;100972.40;;;18.44
68911;BMP180;55953;51.650;-0.522;2022-07-29T06:30:32;100972.00;;;18.60
68911;BMP180;55953;51.650;-0.522;2022-07-29T06:33:00;100970.80;;;18.70
68911;BMP180;55953;51.650;-0.522;2022-07-29T06:35:29;100967.20;;;18.80
68911;BMP180;55953;51.650;-0.522;2022-07-29T06:38:09;100969.60;;;18.90
68911;BMP180;55953;51.650;-0.522;2022-07-29T06:40:59;100971.80;;;19.10
68911;BMP180;55953;51.650;-0.522;2022-07-29T06:43:39;100976.00;;;19.30
68911;BMP180;55953;51.650;-0.522;2022-07-29T06:46:19;100976.40;;;19.40
68911;BMP180;55953;51.650;-0.522;2022-07-29T06:48:48;100977.60;;;19.50
68911;BMP180;55953;51.650;-0.522;2022-07-29T06:51:17;100975.00;;;19.50
68911;BMP180;55953;51.650;-0.522;2022-07-29T06:53:51;100977.40;;;19.60
68911;BMP180;55953;51.650;-0.522;2022-07-29T06:56:25;100978.40;;;19.60
68911;BMP180;55953;51.650;-0.522;2022-07-29T06:58:52;100982.60;;;19.56
68911;BMP180;55953;51.650;-0.522;2022-07-29T07:01:20;100982.40;;;19.70
68911;BMP180;55953;51.650;-0.522;2022-07-29T07:03:49;100984.40;;;19.80
68911;BMP180;55953;51.650;-0.522;2022-07-29T07:06:17;100986.80;;;20.00
68911;BMP180;55953;51.650;-0.522;2022-07-29T07:08:44;100982.00;;;20.10
68911;BMP180;55953;51.650;-0.522;2022-07-29T07:11:12;100987.80;;;20.00
68911;BMP180;55953;51.650;-0.522;2022-07-29T07:13:40;100989.00;;;20.00
68911;BMP180;55953;51.650;-0.522;2022-07-29T07:16:08;100988.20;;;20.04
68911;BMP180;55953;51.650;-0.522;2022-07-29T07:18:36;100988.60;;;20.00
68911;BMP180;55953;51.650;-0.522;2022-07-29T07:21:04;100988.20;;;19.92
68911;BMP180;55953;51.650;-0.522;2022-07-29T07:23:33;100984.20;;;20.00
68911;BMP180;55953;51.650;-0.522;2022-07-29T07:26:00;100988.00;;;20.20
68911;BMP180;55953;51.650;-0.522;2022-07-29T07:28:28;100984.00;;;20.30
68911;BMP180;55953;51.650;-0.522;2022-07-29T07:30:56;100987.40;;;20.40
68911;BMP180;55953;51.650;-0.522;2022-07-29T07:33:24;100992.00;;;20.46
68911;BMP180;55953;51.650;-0.522;2022-07-29T07:35:52;100985.00;;;20.40
68911;BMP180;55953;51.650;-0.522;2022-07-29T07:38:19;100982.80;;;20.40
68911;BMP180;55953;51.650;-0.522;2022-07-29T07:40:47;100985.80;;;20.46
68911;BMP180;55953;51.650;-0.522;2022-07-29T07:43:15;100990.00;;;20.40
68911;BMP180;55953;51.650;-0.522;2022-07-29T07:45:43;100981.20;;;20.30
68911;BMP180;55953;51.650;-0.522;2022-07-29T07:48:11;100983.80;;;20.30
68911;BMP180;55953;51.650;-0.522;2022-07-29T07:50:38;100987.00;;;20.20
68911;BMP180;55953;51.650;-0.522;2022-07-29T07:53:06;100990.20;;;20.20
68911;BMP180;55953;51.650;-0.522;2022-07-29T07:55:40;100989.20;;;20.00
68911;BMP180;55953;51.650;-0.522;2022-07-29T07:58:28;100991.60;;;20.00
68911;BMP180;55953;51.650;-0.522;2022-07-29T08:00:56;100993.40;;;20.00
68911;BMP180;55953;51.650;-0.522;2022-07-29T08:03:24;100994.00;;;20.00
68911;BMP180;55953;51.650;-0.522;2022-07-29T08:05:52;100997.20;;;19.94
68911;BMP180;55953;51.650;-0.522;2022-07-29T08:08:21;100997.40;;;20.00
68911;BMP180;55953;51.650;-0.522;2022-07-29T08:10:49;100995.40;;;20.10
68911;BMP180;55953;51.650;-0.522;2022-07-29T08:13:23;100994.40;;;20.20
68911;BMP180;55953;51.650;-0.522;2022-07-29T08:15:51;100991.20;;;20.30
68911;BMP180;55953;51.650;-0.522;2022-07-29T08:18:28;100989.20;;;20.42
68911;BMP180;55953;51.650;-0.522;2022-07-29T08:20:57;100991.20;;;21.00
68911;BMP180;55953;51.650;-0.522;2022-07-29T08:23:25;100995.20;;;21.30
68911;BMP180;55953;51.650;-0.522;2022-07-29T08:26:13;100994.60;;;21.60
68911;BMP180;55953;51.650;-0.522;2022-07-29T08:28:44;100990.00;;;21.90
68911;BMP180;55953;51.650;-0.522;2022-07-29T08:31:13;100994.00;;;22.06
68911;BMP180;55953;51.650;-0.522;2022-07-29T08:33:42;100987.40;;;22.20
68911;BMP180;55953;51.650;-0.522;2022-07-29T08:36:10;100990.00;;;22.40
68911;BMP180;55953;51.650;-0.522;2022-07-29T08:38:37;100990.80;;;22.50
68911;BMP180;55953;51.650;-0.522;2022-07-29T08:41:05;100987.20;;;22.60
68911;BMP180;55953;51.650;-0.522;2022-07-29T08:43:33;100994.80;;;22.70
68911;BMP180;55953;51.650;-0.522;2022-07-29T08:46:04;100987.40;;;22.60
68911;BMP180;55953;51.650;-0.522;2022-07-29T08:48:33;100988.20;;;22.50
68911;BMP180;55953;51.650;-0.522;2022-07-29T08:51:02;100981.00;;;22.40
68911;BMP180;55953;51.650;-0.522;2022-07-29T08:53:32;100983.60;;;22.50
68911;BMP180;55953;51.650;-0.522;2022-07-29T08:56:01;100986.40;;;22.70
68911;BMP180;55953;51.650;-0.522;2022-07-29T08:58:33;100982.60;;;22.90
68911;BMP180;55953;51.650;-0.522;2022-07-29T09:01:06;100981.20;;;22.80
68911;BMP180;55953;51.650;-0.522;2022-07-29T09:03:40;100978.20;;;22.70
68911;BMP180;55953;51.650;-0.522;2022-07-29T09:06:09;100978.00;;;22.80
68911;BMP180;55953;51.650;-0.522;2022-07-29T09:08:39;100976.00;;;22.80
68911;BMP180;55953;51.650;-0.522;2022-07-29T09:11:08;100975.00;;;22.80
68911;BMP180;55953;51.650;-0.522;2022-07-29T09:13:36;100977.40;;;22.60
68911;BMP180;55953;51.650;-0.522;2022-07-29T09:16:04;100980.80;;;22.60
68911;BMP180;55953;51.650;-0.522;2022-07-29T09:18:42;100983.80;;;22.58
68911;BMP180;55953;51.650;-0.522;2022-07-29T09:21:16;100985.80;;;22.50
68911;BMP180;55953;51.650;-0.522;2022-07-29T09:24:12;100985.00;;;22.46
68911;BMP180;55953;51.650;-0.522;2022-07-29T09:26:45;100987.60;;;22.40
68911;BMP180;55953;51.650;-0.522;2022-07-29T09:29:19;100980.80;;;22.50
68911;BMP180;55953;51.650;-0.522;2022-07-29T09:31:51;100979.40;;;22.40
68911;BMP180;55953;51.650;-0.522;2022-07-29T09:34:28;100975.40;;;22.36
68911;BMP180;55953;51.650;-0.522;2022-07-29T09:36:56;100977.00;;;22.40
68911;BMP180;55953;51.650;-0.522;2022-07-29T09:39:37;100979.20;;;22.44
68911;BMP180;55953;51.650;-0.522;2022-07-29T09:42:06;100972.60;;;22.40
68911;BMP180;55953;51.650;-0.522;2022-07-29T09:44:49;100974.20;;;22.42
68911;BMP180;55953;51.650;-0.522;2022-07-29T09:47:19;100980.40;;;22.60
68911;BMP180;55953;51.650;-0.522;2022-07-29T09:49:55;100982.80;;;22.70
68911;BMP180;55953;51.650;-0.522;2022-07-29T09:52:29;100980.80;;;22.80
68911;BMP180;55953;51.650;-0.522;2022-07-29T09:55:09;100983.20;;;22.80
68911;BMP180;55953;51.650;-0.522;2022-07-29T09:57:46;100976.80;;;22.90
68911;BMP180;55953;51.650;-0.522;2022-07-29T10:00:18;100973.80;;;23.00
68911;BMP180;55953;51.650;-0.522;2022-07-29T10:02:47;100973.40;;;23.00
68911;BMP180;55953;51.650;-0.522;2022-07-29T10:05:25;100967.80;;;23.00
68911;BMP180;55953;51.650;-0.522;2022-07-29T10:08:04;100969.80;;;23.10
68911;BMP180;55953;51.650;-0.522;2022-07-29T10:10:39;100968.80;;;23.10
68911;BMP180;55953;51.650;-0.522;2022-07-29T10:13:11;100970.60;;;23.20
68911;BMP180;55953;51.650;-0.522;2022-07-29T10:15:44;100968.00;;;23.20
68911;BMP180;55953;51.650;-0.522;2022-07-29T10:18:14;100973.20;;;23.22
68911;BMP180;55953;51.650;-0.522;2022-07-29T10:20:45;100970.40;;;23.14
68911;BMP180;55953;51.650;-0.522;2022-07-29T10:23:13;100974.20;;;23.10
68911;BMP180;55953;51.650;-0.522;2022-07-29T10:25:41;100977.20;;;23.10
68911;BMP180;55953;51.650;-0.522;2022-07-29T10:28:13;100975.60;;;23.10
68911;BMP180;55953;51.650;-0.522;2022-07-29T10:30:45;100974.00;;;23.10
68911;BMP180;55953;51.650;-0.522;2022-07-29T10:33:29;100970.40;;;23.12
68911;BMP180;55953;51.650;-0.522;2022-07-29T10:37:08;100975.40;;;23.20
68911;BMP180;55953;51.650;-0.522;2022-07-29T10:40:27;100977.80;;;23.10
68911;BMP180;55953;51.650;-0.522;2022-07-29T10:43:26;100972.40;;;23.10
68911;BMP180;55953;51.650;-0.522;2022-07-29T10:45:59;100978.40;;;23.28
68911;BMP180;55953;51.650;-0.522;2022-07-29T10:48:27;100974.80;;;23.22
68911;BMP180;55953;51.650;-0.522;2022-07-29T10:51:04;100975.60;;;23.30
68911;BMP180;55953;51.650;-0.522;2022-07-29T10:53:50;100982.80;;;23.40
68911;BMP180;55953;51.650;-0.522;2022-07-29T11:01:50;100972.00;;;23.40
68911;BMP180;55953;51.650;-0.522;2022-07-29T11:07:13;100970.00;;;23.70
68911;BMP180;55953;51.650;-0.522;2022-07-29T11:09:43;100971.40;;;23.92
68911;BMP180;55953;51.650;-0.522;2022-07-29T11:15:07;100971.20;;;24.30
68911;BMP180;55953;51.650;-0.522;2022-07-29T11:20:46;100972.80;;;24.70
68911;BMP180;55953;51.650;-0.522;2022-07-29T11:23:34;100969.20;;;24.90
68911;BMP180;55953;51.650;-0.522;2022-07-29T11:31:44;100977.80;;;25.10
68911;BMP180;55953;51.650;-0.522;2022-07-29T11:39:40;100970.60;;;25.36
68911;BMP180;55953;51.650;-0.522;2022-07-29T11:45:22;100971.20;;;25.70
68911;BMP180;55953;51.650;-0.522;2022-07-29T11:48:18;100973.40;;;25.90
68911;BMP180;55953;51.650;-0.522;2022-07-29T11:50:59;100964.60;;;25.90
68911;BMP180;55953;51.650;-0.522;2022-07-29T11:53:27;100969.60;;;26.06
68911;BMP180;55953;51.650;-0.522;2022-07-29T11:56:00;100970.00;;;26.30
68911;BMP180;55953;51.650;-0.522;2022-07-29T11:58:30;100967.60;;;26.56
68911;BMP180;55953;51.650;-0.522;2022-07-29T12:01:00;100962.00;;;26.80
68911;BMP180;55953;51.650;-0.522;2022-07-29T12:03:32;100963.40;;;27.10
68911;BMP180;55953;51.650;-0.522;2022-07-29T12:06:20;100959.00;;;27.32
68911;BMP180;55953;51.650;-0.522;2022-07-29T12:08:48;100962.20;;;27.40
68911;BMP180;55953;51.650;-0.522;2022-07-29T12:11:18;100969.60;;;27.40
68911;BMP180;55953;51.650;-0.522;2022-07-29T12:13:50;100967.80;;;27.10
68911;BMP180;55953;51.650;-0.522;2022-07-29T12:16:20;100963.20;;;26.72
68911;BMP180;55953;51.650;-0.522;2022-07-29T12:18:58;100963.80;;;26.50
68911;BMP180;55953;51.650;-0.522;2022-07-29T12:21:26;100961.60;;;26.40
68911;BMP180;55953;51.650;-0.522;2022-07-29T12:23:56;100959.00;;;26.00
68911;BMP180;55953;51.650;-0.522;2022-07-29T12:26:32;100957.60;;;25.80
68911;BMP180;55953;51.650;-0.522;2022-07-29T12:29:02;100951.20;;;25.60
68911;BMP180;55953;51.650;-0.522;2022-07-29T12:31:38;100955.00;;;25.86
68911;BMP180;55953;51.650;-0.522;2022-07-29T12:34:14;100949.60;;;26.00
68911;BMP180;55953;51.650;-0.522;2022-07-29T12:36:43;100950.00;;;26.10
68911;BMP180;55953;51.650;-0.522;2022-07-29T12:39:11;100946.80;;;26.10
68911;BMP180;55953;51.650;-0.522;2022-07-29T12:41:39;100942.20;;;26.48
68911;BMP180;55953;51.650;-0.522;2022-07-29T12:44:07;100942.60;;;26.94
68911;BMP180;55953;51.650;-0.522;2022-07-29T12:46:35;100939.80;;;27.32
68911;BMP180;55953;51.650;-0.522;2022-07-29T12:49:04;100937.60;;;27.70
68911;BMP180;55953;51.650;-0.522;2022-07-29T12:51:38;100933.80;;;28.00
68911;BMP180;55953;51.650;-0.522;2022-07-29T12:54:08;100929.80;;;28.36
68911;BMP180;55953;51.650;-0.522;2022-07-29T12:56:39;100929.60;;;28.70
68911;BMP180;55953;51.650;-0.522;2022-07-29T12:59:21;100921.80;;;28.74
68911;BMP180;55953;51.650;-0.522;2022-07-29T13:01:51;100927.60;;;28.88
68911;BMP180;55953;51.650;-0.522;2022-07-29T13:04:28;100927.20;;;28.90
68911;BMP180;55953;51.650;-0.522;2022-07-29T13:07:05;100923.60;;;28.52
68911;BMP180;55953;51.650;-0.522;2022-07-29T13:09:41;100926.60;;;27.96
68911;BMP180;55953;51.650;-0.522;2022-07-29T13:12:13;100930.20;;;27.50
68911;BMP180;55953;51.650;-0.522;2022-07-29T13:14:48;100932.40;;;27.30
68911;BMP180;55953;51.650;-0.522;2022-07-29T13:17:20;100933.40;;;27.26
68911;BMP180;55953;51.650;-0.522;2022-07-29T13:20:05;100933.20;;;27.10
68911;BMP180;55953;51.650;-0.522;2022-07-29T13:22:36;100930.00;;;27.10
68911;BMP180;55953;51.650;-0.522;2022-07-29T13:25:04;100933.20;;;27.10
68911;BMP180;55953;51.650;-0.522;2022-07-29T13:27:37;100938.40;;;27.00
68911;BMP180;55953;51.650;-0.522;2022-07-29T13:30:08;100933.20;;;26.86
68911;BMP180;55953;51.650;-0.522;2022-07-29T13:32:36;100936.00;;;26.80
68911;BMP180;55953;51.650;-0.522;2022-07-29T13:35:07;100937.60;;;26.88
68911;BMP180;55953;51.650;-0.522;2022-07-29T13:37:36;100939.80;;;27.00
68911;BMP180;55953;51.650;-0.522;2022-07-29T13:40:08;100938.60;;;27.02
68911;BMP180;55953;51.650;-0.522;2022-07-29T13:42:37;100937.60;;;27.00
68911;BMP180;55953;51.650;-0.522;2022-07-29T13:45:06;100937.60;;;27.00
68911;BMP180;55953;51.650;-0.522;2022-07-29T13:47:34;100944.20;;;27.00
68911;BMP180;55953;51.650;-0.522;2022-07-29T13:50:07;100932.40;;;26.94
68911;BMP180;55953;51.650;-0.522;2022-07-29T13:52:37;100933.40;;;27.28
68911;BMP180;55953;51.650;-0.522;2022-07-29T13:55:06;100933.80;;;27.70
68911;BMP180;55953;51.650;-0.522;2022-07-29T13:57:34;100928.20;;;27.90
68911;BMP180;55953;51.650;-0.522;2022-07-29T14:00:03;100925.60;;;28.14
68911;BMP180;55953;51.650;-0.522;2022-07-29T14:02:34;100926.20;;;28.10
68911;BMP180;55953;51.650;-0.522;2022-07-29T14:05:03;100923.80;;;27.90
68911;BMP180;55953;51.650;-0.522;2022-07-29T14:07:36;100928.60;;;27.80
68911;BMP180;55953;51.650;-0.522;2022-07-29T14:10:06;100927.80;;;27.70
68911;BMP180;55953;51.650;-0.522;2022-07-29T14:12:34;100926.80;;;27.70
68911;BMP180;55953;51.650;-0.522;2022-07-29T14:15:02;100920.00;;;27.90
68911;BMP180;55953;51.650;-0.522;2022-07-29T14:17:30;100926.40;;;27.98
68911;BMP180;55953;51.650;-0.522;2022-07-29T14:19:58;100920.80;;;28.00
68911;BMP180;55953;51.650;-0.522;2022-07-29T14:22:26;100921.40;;;27.98
68911;BMP180;55953;51.650;-0.522;2022-07-29T14:24:54;100925.60;;;28.00
68911;BMP180;55953;51.650;-0.522;2022-07-29T14:27:21;100930.00;;;28.10
68911;BMP180;55953;51.650;-0.522;2022-07-29T14:30:06;100924.20;;;28.02
68911;BMP180;55953;51.650;-0.522;2022-07-29T14:32:34;100924.00;;;28.10
68911;BMP180;55953;51.650;-0.522;2022-07-29T14:35:02;100925.60;;;28.36
68911;BMP180;55953;51.650;-0.522;2022-07-29T14:37:30;100920.80;;;28.60
68911;BMP180;55953;51.650;-0.522;2022-07-29T14:40:09;100920.80;;;28.80
68911;BMP180;55953;51.650;-0.522;2022-07-29T14:42:37;100920.60;;;29.00
68911;BMP180;55953;51.650;-0.522;2022-07-29T14:45:08;100920.40;;;29.10
68911;BMP180;55953;51.650;-0.522;2022-07-29T14:47:37;100917.60;;;29.10
68911;BMP180;55953;51.650;-0.522;2022-07-29T14:50:06;100915.60;;;29.00